Terminal Aerodrome Forecast
Issued by NWS Wilmington, OH

Home | Current Version | Previous Version | Text Only | Print | Product List | Glossary On
Versions: 1 2 3 4 5 6 7 8 9 10 11 12 13 14
000
FTUS41 KILN 202300
TAFILN
TAF
KILN 202334Z 2100/2124 VRB03KT P6SM OVC015
     FM210400 VRB03KT P6SM OVC025
     FM211800 13004KT P6SM SCT250=

USA.gov is the U.S. government's official web portal to all federal, state and local government web resources and services.